Lower Sugarloaf Key, Florida
Current Conditions -  °F | °C
As of 12:53 AM on Saturday 01 Nov 2014 (Local Time) from KNQX Reporting Station
Light Rain Light Rain  
Wind Chill: 76°   Ceiling: Unl
Heat Index: 76°   Visibility: 10mi
Dew Point: 61°   Wind: 14mph
Humidity: 60%   Direction: 310°NW
Pressure: 29.94"   Gusts: 22mph
Location:  24.6465°N, 81.5399°W
Report Text: KNQX 010453Z AUTO 31012G19KT 10SM -RA SCT039 24/16 A2994 RMK AO2 SLP137 P0000 T02440161 402940228 $
Loading
Personal Weather Stations






























Interactive Weather Map
Tropical Storm Tracking
New forecast layout! Learn more

10-Day Weather Forecast

Advertisements
Track Severe Weather on mobile